Terminal Aerodrome Forecast
Issued by NWS Houston/Galveston, TX

Home | Current Version | Previous Version | Text Only | Print | Product List | Glossary On
Versions: 1 2 3 4 5 6 7 8 9 10 11 12 13 14 15
000
FTUS44 KHGX 200523
TAFCLL
TAF
KCLL 200523Z 2006/2106 VRB04KT P6SM SCT150
     FM200900 18003KT 6SM BR SCT015 SCT250
      TEMPO 2010/2013 3SM BR BKN015
     FM201400 16010KT P6SM FEW035 SCT070
     FM210100 15006KT P6SM BKN060 BKN150=

USA.gov is the U.S. government's official web portal to all federal, state and local government web resources and services.